sensor_id;sensor_type;location;lat;lon;timestamp;P1;durP1;ratioP1;P2;durP2;ratioP2
22768;SDS011;13001;51.968;5.918;2022-11-15T00:00:02;326.30;;;304.03;;
22768;SDS011;13001;51.968;5.918;2022-11-15T00:02:29;307.53;;;286.93;;
22768;SDS011;13001;51.968;5.918;2022-11-15T00:04:56;327.03;;;304.50;;
22768;SDS011;13001;51.968;5.918;2022-11-15T00:07:24;292.63;;;273.07;;
22768;SDS011;13001;51.968;5.918;2022-11-15T00:09:51;321.43;;;299.83;;
22768;SDS011;13001;51.968;5.918;2022-11-15T00:12:18;296.60;;;276.93;;
22768;SDS011;13001;51.968;5.918;2022-11-15T00:14:46;301.33;;;281.10;;
22768;SDS011;13001;51.968;5.918;2022-11-15T00:17:13;333.57;;;311.27;;
22768;SDS011;13001;51.968;5.918;2022-11-15T00:19:40;310.03;;;289.07;;
22768;SDS011;13001;51.968;5.918;2022-11-15T00:22:07;298.43;;;278.40;;
22768;SDS011;13001;51.968;5.918;2022-11-15T00:24:35;303.47;;;282.83;;
22768;SDS011;13001;51.968;5.918;2022-11-15T00:27:02;271.63;;;253.23;;
22768;SDS011;13001;51.968;5.918;2022-11-15T00:29:29;271.30;;;252.63;;
22768;SDS011;13001;51.968;5.918;2022-11-15T00:31:56;279.60;;;260.17;;
22768;SDS011;13001;51.968;5.918;2022-11-15T00:34:24;242.53;;;225.73;;
22768;SDS011;13001;51.968;5.918;2022-11-15T00:36:51;262.63;;;244.93;;
22768;SDS011;13001;51.968;5.918;2022-11-15T00:39:18;248.40;;;231.13;;
22768;SDS011;13001;51.968;5.918;2022-11-15T00:41:45;262.80;;;244.10;;
22768;SDS011;13001;51.968;5.918;2022-11-15T00:44:13;253.03;;;235.67;;
22768;SDS011;13001;51.968;5.918;2022-11-15T00:46:40;268.20;;;250.03;;
22768;SDS011;13001;51.968;5.918;2022-11-15T00:49:07;271.80;;;253.57;;
22768;SDS011;13001;51.968;5.918;2022-11-15T00:51:34;250.47;;;233.53;;
22768;SDS011;13001;51.968;5.918;2022-11-15T00:54:02;252.77;;;235.83;;
22768;SDS011;13001;51.968;5.918;2022-11-15T00:56:29;231.40;;;215.77;;
22768;SDS011;13001;51.968;5.918;2022-11-15T00:58:56;244.67;;;228.40;;
22768;SDS011;13001;51.968;5.918;2022-11-15T01:01:24;243.00;;;226.10;;
22768;SDS011;13001;51.968;5.918;2022-11-15T01:03:51;232.23;;;217.00;;
22768;SDS011;13001;51.968;5.918;2022-11-15T01:06:18;226.17;;;211.10;;
22768;SDS011;13001;51.968;5.918;2022-11-15T01:08:45;191.47;;;179.13;;
22768;SDS011;13001;51.968;5.918;2022-11-15T01:11:13;194.23;;;181.43;;
22768;SDS011;13001;51.968;5.918;2022-11-15T01:13:40;185.87;;;173.17;;
22768;SDS011;13001;51.968;5.918;2022-11-15T01:18:36;164.47;;;152.90;;
22768;SDS011;13001;51.968;5.918;2022-11-15T01:21:12;170.40;;;158.70;;
22768;SDS011;13001;51.968;5.918;2022-11-15T01:23:35;172.90;;;161.17;;
22768;SDS011;13001;51.968;5.918;2022-11-15T01:26:03;151.50;;;141.00;;
22768;SDS011;13001;51.968;5.918;2022-11-15T01:28:34;158.30;;;147.40;;
22768;SDS011;13001;51.968;5.918;2022-11-15T01:31:02;151.67;;;141.60;;
22768;SDS011;13001;51.968;5.918;2022-11-15T01:33:30;150.83;;;140.40;;
22768;SDS011;13001;51.968;5.918;2022-11-15T01:35:57;142.53;;;133.00;;
22768;SDS011;13001;51.968;5.918;2022-11-15T01:38:25;146.60;;;136.10;;
22768;SDS011;13001;51.968;5.918;2022-11-15T01:40:52;148.83;;;138.43;;
22768;SDS011;13001;51.968;5.918;2022-11-15T01:45:49;131.70;;;122.90;;
22768;SDS011;13001;51.968;5.918;2022-11-15T01:48:17;125.30;;;116.70;;
22768;SDS011;13001;51.968;5.918;2022-11-15T01:50:44;136.97;;;127.33;;
22768;SDS011;13001;51.968;5.918;2022-11-15T01:53:12;132.77;;;123.50;;
22768;SDS011;13001;51.968;5.918;2022-11-15T01:55:39;136.73;;;126.90;;
22768;SDS011;13001;51.968;5.918;2022-11-15T01:58:06;150.03;;;139.17;;
22768;SDS011;13001;51.968;5.918;2022-11-15T02:00:34;147.97;;;137.57;;
22768;SDS011;13001;51.968;5.918;2022-11-15T02:03:03;139.27;;;129.57;;
22768;SDS011;13001;51.968;5.918;2022-11-15T02:05:30;149.80;;;138.73;;
22768;SDS011;13001;51.968;5.918;2022-11-15T02:07:59;156.80;;;145.70;;
22768;SDS011;13001;51.968;5.918;2022-11-15T02:10:27;142.60;;;132.43;;
22768;SDS011;13001;51.968;5.918;2022-11-15T02:12:55;142.67;;;132.03;;
22768;SDS011;13001;51.968;5.918;2022-11-15T02:15:24;148.67;;;138.30;;
22768;SDS011;13001;51.968;5.918;2022-11-15T02:17:55;138.07;;;128.27;;
22768;SDS011;13001;51.968;5.918;2022-11-15T02:25:40;145.97;;;135.87;;
22768;SDS011;13001;51.968;5.918;2022-11-15T02:33:41;148.73;;;138.07;;
22768;SDS011;13001;51.968;5.918;2022-11-15T02:36:15;146.63;;;136.30;;
22768;SDS011;13001;51.968;5.918;2022-11-15T02:41:15;143.73;;;133.30;;
22768;SDS011;13001;51.968;5.918;2022-11-15T02:43:45;151.30;;;140.33;;
22768;SDS011;13001;51.968;5.918;2022-11-15T02:46:28;163.40;;;151.67;;
22768;SDS011;13001;51.968;5.918;2022-11-15T02:48:56;159.00;;;147.73;;
22768;SDS011;13001;51.968;5.918;2022-11-15T02:51:23;158.53;;;146.83;;
22768;SDS011;13001;51.968;5.918;2022-11-15T02:53:52;162.77;;;151.03;;
22768;SDS011;13001;51.968;5.918;2022-11-15T02:56:19;158.53;;;147.07;;
22768;SDS011;13001;51.968;5.918;2022-11-15T03:01:25;171.57;;;158.60;;
22768;SDS011;13001;51.968;5.918;2022-11-15T03:06:31;183.93;;;169.87;;
22768;SDS011;13001;51.968;5.918;2022-11-15T03:08:59;180.23;;;167.13;;
22768;SDS011;13001;51.968;5.918;2022-11-15T03:11:25;192.50;;;177.97;;
22768;SDS011;13001;51.968;5.918;2022-11-15T03:14:00;190.90;;;176.43;;
22768;SDS011;13001;51.968;5.918;2022-11-15T03:16:34;210.23;;;194.33;;
22768;SDS011;13001;51.968;5.918;2022-11-15T03:19:08;203.60;;;187.97;;
22768;SDS011;13001;51.968;5.918;2022-11-15T03:21:33;224.30;;;207.47;;
22768;SDS011;13001;51.968;5.918;2022-11-15T03:24:02;234.37;;;215.80;;
22768;SDS011;13001;51.968;5.918;2022-11-15T03:26:30;234.27;;;216.43;;
22768;SDS011;13001;51.968;5.918;2022-11-15T03:29:01;248.50;;;229.60;;
22768;SDS011;13001;51.968;5.918;2022-11-15T03:31:28;235.87;;;218.13;;
22768;SDS011;13001;51.968;5.918;2022-11-15T03:36:49;250.87;;;231.77;;
22768;SDS011;13001;51.968;5.918;2022-11-15T03:39:18;253.10;;;233.40;;
22768;SDS011;13001;51.968;5.918;2022-11-15T03:41:48;255.60;;;236.23;;
22768;SDS011;13001;51.968;5.918;2022-11-15T03:44:20;252.17;;;232.40;;
22768;SDS011;13001;51.968;5.918;2022-11-15T03:46:47;249.30;;;230.33;;
22768;SDS011;13001;51.968;5.918;2022-11-15T03:49:17;249.43;;;230.30;;
22768;SDS011;13001;51.968;5.918;2022-11-15T03:51:44;238.40;;;220.73;;
22768;SDS011;13001;51.968;5.918;2022-11-15T03:54:12;245.13;;;226.53;;
22768;SDS011;13001;51.968;5.918;2022-11-15T03:56:39;247.90;;;228.93;;
22768;SDS011;13001;51.968;5.918;2022-11-15T03:59:06;253.83;;;235.03;;
22768;SDS011;13001;51.968;5.918;2022-11-15T04:01:33;250.77;;;232.37;;
22768;SDS011;13001;51.968;5.918;2022-11-15T04:04:01;261.20;;;242.00;;
22768;SDS011;13001;51.968;5.918;2022-11-15T04:06:28;257.47;;;238.30;;
22768;SDS011;13001;51.968;5.918;2022-11-15T04:08:55;261.50;;;241.77;;
22768;SDS011;13001;51.968;5.918;2022-11-15T04:11:22;264.97;;;245.23;;
22768;SDS011;13001;51.968;5.918;2022-11-15T04:13:50;261.50;;;242.37;;
22768;SDS011;13001;51.968;5.918;2022-11-15T04:16:18;258.87;;;239.97;;
22768;SDS011;13001;51.968;5.918;2022-11-15T04:18:45;272.30;;;252.53;;
22768;SDS011;13001;51.968;5.918;2022-11-15T04:21:14;264.30;;;245.20;;
22768;SDS011;13001;51.968;5.918;2022-11-15T04:23:59;264.63;;;245.73;;
22768;SDS011;13001;51.968;5.918;2022-11-15T04:26:38;248.77;;;231.10;;
22768;SDS011;13001;51.968;5.918;2022-11-15T04:29:06;261.57;;;243.50;;
22768;SDS011;13001;51.968;5.918;2022-11-15T04:31:50;233.73;;;217.00;;
22768;SDS011;13001;51.968;5.918;2022-11-15T04:34:17;256.10;;;238.37;;
22768;SDS011;13001;51.968;5.918;2022-11-15T04:36:44;244.57;;;227.73;;
22768;SDS011;13001;51.968;5.918;2022-11-15T04:39:30;243.83;;;226.83;;
22768;SDS011;13001;51.968;5.918;2022-11-15T04:41:57;246.53;;;229.73;;
22768;SDS011;13001;51.968;5.918;2022-11-15T04:44:24;249.83;;;232.30;;
22768;SDS011;13001;51.968;5.918;2022-11-15T04:46:52;246.27;;;229.20;;
22768;SDS011;13001;51.968;5.918;2022-11-15T04:49:19;248.20;;;231.17;;
22768;SDS011;13001;51.968;5.918;2022-11-15T04:51:46;250.30;;;233.03;;
22768;SDS011;13001;51.968;5.918;2022-11-15T04:54:13;243.87;;;227.83;;
22768;SDS011;13001;51.968;5.918;2022-11-15T04:56:41;235.47;;;219.57;;
22768;SDS011;13001;51.968;5.918;2022-11-15T04:59:08;240.70;;;224.17;;
22768;SDS011;13001;51.968;5.918;2022-11-15T05:01:35;249.13;;;232.10;;
22768;SDS011;13001;51.968;5.918;2022-11-15T05:04:02;241.03;;;224.30;;
22768;SDS011;13001;51.968;5.918;2022-11-15T05:06:46;249.37;;;232.40;;
22768;SDS011;13001;51.968;5.918;2022-11-15T05:09:13;248.27;;;231.20;;
22768;SDS011;13001;51.968;5.918;2022-11-15T05:11:40;256.77;;;238.83;;
22768;SDS011;13001;51.968;5.918;2022-11-15T05:14:08;249.83;;;232.27;;
22768;SDS011;13001;51.968;5.918;2022-11-15T05:16:36;265.73;;;247.60;;
22768;SDS011;13001;51.968;5.918;2022-11-15T05:19:03;255.20;;;237.20;;
22768;SDS011;13001;51.968;5.918;2022-11-15T05:21:31;254.93;;;236.60;;
22768;SDS011;13001;51.968;5.918;2022-11-15T05:23:59;252.73;;;235.03;;
22768;SDS011;13001;51.968;5.918;2022-11-15T05:26:26;260.40;;;242.57;;
22768;SDS011;13001;51.968;5.918;2022-11-15T05:28:54;263.83;;;245.20;;
22768;SDS011;13001;51.968;5.918;2022-11-15T05:31:21;265.60;;;247.23;;
22768;SDS011;13001;51.968;5.918;2022-11-15T05:33:49;265.07;;;246.43;;
22768;SDS011;13001;51.968;5.918;2022-11-15T05:36:25;279.83;;;260.77;;
22768;SDS011;13001;51.968;5.918;2022-11-15T05:38:50;267.90;;;249.67;;
22768;SDS011;13001;51.968;5.918;2022-11-15T05:41:18;272.63;;;254.10;;
22768;SDS011;13001;51.968;5.918;2022-11-15T05:43:46;271.93;;;252.90;;
22768;SDS011;13001;51.968;5.918;2022-11-15T05:46:15;279.40;;;260.23;;
22768;SDS011;13001;51.968;5.918;2022-11-15T05:48:43;273.23;;;254.90;;
22768;SDS011;13001;51.968;5.918;2022-11-15T05:51:11;262.07;;;244.33;;
22768;SDS011;13001;51.968;5.918;2022-11-15T05:53:40;253.13;;;236.03;;
22768;SDS011;13001;51.968;5.918;2022-11-15T05:56:08;274.83;;;255.97;;
22768;SDS011;13001;51.968;5.918;2022-11-15T05:58:36;274.67;;;256.03;;
22768;SDS011;13001;51.968;5.918;2022-11-15T06:01:04;273.27;;;254.77;;
22768;SDS011;13001;51.968;5.918;2022-11-15T06:03:31;261.33;;;243.43;;
22768;SDS011;13001;51.968;5.918;2022-11-15T06:05:58;284.60;;;265.70;;
22768;SDS011;13001;51.968;5.918;2022-11-15T06:08:26;271.37;;;252.90;;
22768;SDS011;13001;51.968;5.918;2022-11-15T06:10:54;275.60;;;256.80;;
22768;SDS011;13001;51.968;5.918;2022-11-15T06:13:21;285.17;;;265.77;;
22768;SDS011;13001;51.968;5.918;2022-11-15T06:15:48;285.87;;;266.97;;
22768;SDS011;13001;51.968;5.918;2022-11-15T06:18:16;265.67;;;247.50;;
22768;SDS011;13001;51.968;5.918;2022-11-15T06:20:43;290.73;;;270.70;;
22768;SDS011;13001;51.968;5.918;2022-11-15T06:23:10;291.60;;;271.73;;
22768;SDS011;13001;51.968;5.918;2022-11-15T06:25:37;280.97;;;262.10;;
22768;SDS011;13001;51.968;5.918;2022-11-15T06:28:05;290.40;;;270.97;;
22768;SDS011;13001;51.968;5.918;2022-11-15T06:30:32;291.40;;;271.93;;
22768;SDS011;13001;51.968;5.918;2022-11-15T06:33:00;281.23;;;262.70;;
22768;SDS011;13001;51.968;5.918;2022-11-15T06:35:28;279.80;;;261.17;;
22768;SDS011;13001;51.968;5.918;2022-11-15T06:37:55;287.03;;;267.70;;
22768;SDS011;13001;51.968;5.918;2022-11-15T06:40:23;276.23;;;257.73;;
22768;SDS011;13001;51.968;5.918;2022-11-15T06:42:50;283.93;;;264.57;;
22768;SDS011;13001;51.968;5.918;2022-11-15T06:45:18;286.70;;;267.63;;
22768;SDS011;13001;51.968;5.918;2022-11-15T06:47:45;294.90;;;275.07;;
22768;SDS011;13001;51.968;5.918;2022-11-15T06:50:13;291.73;;;272.37;;
22768;SDS011;13001;51.968;5.918;2022-11-15T06:52:40;301.53;;;281.37;;
22768;SDS011;13001;51.968;5.918;2022-11-15T06:55:08;296.80;;;276.90;;
22768;SDS011;13001;51.968;5.918;2022-11-15T06:57:35;297.67;;;277.60;;
22768;SDS011;13001;51.968;5.918;2022-11-15T07:00:04;289.57;;;270.40;;
22768;SDS011;13001;51.968;5.918;2022-11-15T07:02:31;282.83;;;263.93;;
22768;SDS011;13001;51.968;5.918;2022-11-15T07:04:59;275.67;;;257.67;;
22768;SDS011;13001;51.968;5.918;2022-11-15T07:07:26;301.50;;;281.87;;
22768;SDS011;13001;51.968;5.918;2022-11-15T07:09:53;303.27;;;283.43;;
22768;SDS011;13001;51.968;5.918;2022-11-15T07:12:20;304.90;;;285.10;;
22768;SDS011;13001;51.968;5.918;2022-11-15T07:14:48;304.23;;;283.93;;
22768;SDS011;13001;51.968;5.918;2022-11-15T07:17:15;299.57;;;279.27;;
22768;SDS011;13001;51.968;5.918;2022-11-15T07:19:42;295.13;;;275.80;;
22768;SDS011;13001;51.968;5.918;2022-11-15T07:22:09;305.90;;;285.73;;
22768;SDS011;13001;51.968;5.918;2022-11-15T07:24:37;314.13;;;293.37;;
22768;SDS011;13001;51.968;5.918;2022-11-15T07:27:04;312.23;;;291.40;;
22768;SDS011;13001;51.968;5.918;2022-11-15T07:29:31;299.47;;;279.83;;
22768;SDS011;13001;51.968;5.918;2022-11-15T07:31:58;301.60;;;281.80;;
22768;SDS011;13001;51.968;5.918;2022-11-15T07:34:26;302.13;;;282.47;;
22768;SDS011;13001;51.968;5.918;2022-11-15T07:36:53;281.80;;;262.90;;
22768;SDS011;13001;51.968;5.918;2022-11-15T07:39:20;279.87;;;261.30;;
22768;SDS011;13001;51.968;5.918;2022-11-15T07:41:47;300.20;;;280.27;;
22768;SDS011;13001;51.968;5.918;2022-11-15T07:44:15;290.13;;;271.13;;
22768;SDS011;13001;51.968;5.918;2022-11-15T07:46:44;266.37;;;249.13;;
22768;SDS011;13001;51.968;5.918;2022-11-15T07:49:11;271.67;;;253.57;;
22768;SDS011;13001;51.968;5.918;2022-11-15T07:51:38;281.27;;;263.23;;
22768;SDS011;13001;51.968;5.918;2022-11-15T07:54:06;258.80;;;241.67;;
22768;SDS011;13001;51.968;5.918;2022-11-15T07:56:33;259.33;;;242.20;;
22768;SDS011;13001;51.968;5.918;2022-11-15T07:59:00;280.20;;;261.53;;
22768;SDS011;13001;51.968;5.918;2022-11-15T08:01:27;281.97;;;263.63;;
22768;SDS011;13001;51.968;5.918;2022-11-15T08:03:55;287.93;;;268.70;;
22768;SDS011;13001;51.968;5.918;2022-11-15T08:06:22;266.57;;;249.43;;
22768;SDS011;13001;51.968;5.918;2022-11-15T08:08:49;276.47;;;258.40;;
22768;SDS011;13001;51.968;5.918;2022-11-15T08:11:16;279.43;;;261.23;;
22768;SDS011;13001;51.968;5.918;2022-11-15T08:13:44;286.97;;;268.43;;
22768;SDS011;13001;51.968;5.918;2022-11-15T08:16:11;267.80;;;250.10;;
22768;SDS011;13001;51.968;5.918;2022-11-15T08:18:38;276.00;;;257.63;;
22768;SDS011;13001;51.968;5.918;2022-11-15T08:21:06;298.70;;;278.77;;
22768;SDS011;13001;51.968;5.918;2022-11-15T08:23:33;289.77;;;271.27;;
22768;SDS011;13001;51.968;5.918;2022-11-15T08:26:03;277.10;;;258.97;;
22768;SDS011;13001;51.968;5.918;2022-11-15T08:28:32;275.40;;;257.33;;
22768;SDS011;13001;51.968;5.918;2022-11-15T08:31:00;303.33;;;283.43;;
22768;SDS011;13001;51.968;5.918;2022-11-15T08:33:27;285.10;;;266.63;;
22768;SDS011;13001;51.968;5.918;2022-11-15T08:35:58;299.10;;;279.50;;
22768;SDS011;13001;51.968;5.918;2022-11-15T08:38:26;306.80;;;287.33;;
22768;SDS011;13001;51.968;5.918;2022-11-15T08:40:59;291.57;;;272.43;;
22768;SDS011;13001;51.968;5.918;2022-11-15T08:43:23;269.93;;;252.37;;
22768;SDS011;13001;51.968;5.918;2022-11-15T08:45:51;236.80;;;221.77;;
22768;SDS011;13001;51.968;5.918;2022-11-15T08:48:18;246.30;;;230.23;;
22768;SDS011;13001;51.968;5.918;2022-11-15T08:50:45;288.57;;;269.70;;
22768;SDS011;13001;51.968;5.918;2022-11-15T08:53:12;303.23;;;283.73;;
22768;SDS011;13001;51.968;5.918;2022-11-15T08:55:41;249.73;;;232.73;;
22768;SDS011;13001;51.968;5.918;2022-11-15T08:58:09;209.93;;;195.37;;
22768;SDS011;13001;51.968;5.918;2022-11-15T09:00:36;180.80;;;168.70;;
22768;SDS011;13001;51.968;5.918;2022-11-15T09:03:04;192.23;;;179.87;;
22768;SDS011;13001;51.968;5.918;2022-11-15T09:05:32;223.40;;;208.30;;
22768;SDS011;13001;51.968;5.918;2022-11-15T09:07:59;222.10;;;206.70;;
22768;SDS011;13001;51.968;5.918;2022-11-15T09:10:26;192.27;;;178.80;;
22768;SDS011;13001;51.968;5.918;2022-11-15T09:12:54;185.07;;;172.50;;
22768;SDS011;13001;51.968;5.918;2022-11-15T09:15:21;204.57;;;190.70;;
22768;SDS011;13001;51.968;5.918;2022-11-15T09:17:48;189.67;;;176.73;;
22768;SDS011;13001;51.968;5.918;2022-11-15T09:20:15;195.40;;;182.40;;
22768;SDS011;13001;51.968;5.918;2022-11-15T09:22:43;223.13;;;207.77;;
22768;SDS011;13001;51.968;5.918;2022-11-15T09:25:10;205.97;;;191.93;;
22768;SDS011;13001;51.968;5.918;2022-11-15T09:27:37;200.27;;;186.53;;
22768;SDS011;13001;51.968;5.918;2022-11-15T09:30:05;213.50;;;199.03;;
22768;SDS011;13001;51.968;5.918;2022-11-15T09:32:32;207.63;;;193.60;;
22768;SDS011;13001;51.968;5.918;2022-11-15T09:34:59;214.20;;;199.90;;
22768;SDS011;13001;51.968;5.918;2022-11-15T09:37:26;236.90;;;220.93;;
22768;SDS011;13001;51.968;5.918;2022-11-15T09:39:54;228.97;;;213.43;;
22768;SDS011;13001;51.968;5.918;2022-11-15T09:42:34;246.93;;;229.87;;
22768;SDS011;13001;51.968;5.918;2022-11-15T09:45:04;259.27;;;240.90;;
22768;SDS011;13001;51.968;5.918;2022-11-15T09:47:47;217.53;;;202.17;;
22768;SDS011;13001;51.968;5.918;2022-11-15T09:50:12;197.13;;;184.13;;
22768;SDS011;13001;51.968;5.918;2022-11-15T09:52:42;191.30;;;178.70;;
22768;SDS011;13001;51.968;5.918;2022-11-15T09:55:14;218.20;;;203.27;;
22768;SDS011;13001;51.968;5.918;2022-11-15T09:57:54;234.10;;;218.00;;
22768;SDS011;13001;51.968;5.918;2022-11-15T10:00:21;206.17;;;192.20;;
22768;SDS011;13001;51.968;5.918;2022-11-15T10:05:24;164.17;;;153.70;;
22768;SDS011;13001;51.968;5.918;2022-11-15T10:10:41;122.53;;;114.73;;
22768;SDS011;13001;51.968;5.918;2022-11-15T10:13:23;184.87;;;172.40;;
22768;SDS011;13001;51.968;5.918;2022-11-15T10:15:46;139.93;;;131.07;;
22768;SDS011;13001;51.968;5.918;2022-11-15T10:18:16;158.80;;;148.93;;
22768;SDS011;13001;51.968;5.918;2022-11-15T10:20:46;276.60;;;258.47;;
22768;SDS011;13001;51.968;5.918;2022-11-15T10:23:14;272.17;;;255.10;;
22768;SDS011;13001;51.968;5.918;2022-11-15T10:25:42;252.10;;;236.50;;
22768;SDS011;13001;51.968;5.918;2022-11-15T10:28:12;293.30;;;273.77;;
22768;SDS011;13001;51.968;5.918;2022-11-15T10:30:39;299.43;;;279.60;;
22768;SDS011;13001;51.968;5.918;2022-11-15T10:33:18;307.97;;;287.57;;
22768;SDS011;13001;51.968;5.918;2022-11-15T10:35:44;359.10;;;332.97;;
22768;SDS011;13001;51.968;5.918;2022-11-15T10:38:12;339.20;;;315.97;;
22768;SDS011;13001;51.968;5.918;2022-11-15T10:40:40;345.70;;;321.43;;
22768;SDS011;13001;51.968;5.918;2022-11-15T10:45:38;384.53;;;355.90;;
22768;SDS011;13001;51.968;5.918;2022-11-15T10:48:24;378.50;;;350.87;;
22768;SDS011;13001;51.968;5.918;2022-11-15T10:50:38;394.63;;;364.80;;
22768;SDS011;13001;51.968;5.918;2022-11-15T10:53:17;441.20;;;408.40;;
22768;SDS011;13001;51.968;5.918;2022-11-15T10:55:46;461.30;;;426.30;;
22768;SDS011;13001;51.968;5.918;2022-11-15T11:00:56;478.60;;;444.80;;
22768;SDS011;13001;51.968;5.918;2022-11-15T11:03:29;533.13;;;494.23;;
22768;SDS011;13001;51.968;5.918;2022-11-15T11:06:03;496.83;;;459.70;;
22768;SDS011;13001;51.968;5.918;2022-11-15T11:08:26;480.97;;;444.83;;
22768;SDS011;13001;51.968;5.918;2022-11-15T11:10:57;490.40;;;451.13;;
22768;SDS011;13001;51.968;5.918;2022-11-15T11:18:32;487.23;;;449.03;;
22768;SDS011;13001;51.968;5.918;2022-11-15T11:20:58;488.33;;;449.93;;
22768;SDS011;13001;51.968;5.918;2022-11-15T11:23:36;413.43;;;382.03;;
22768;SDS011;13001;51.968;5.918;2022-11-15T11:26:10;409.27;;;381.30;;
22768;SDS011;13001;51.968;5.918;2022-11-15T11:28:39;402.67;;;374.43;;
22768;SDS011;13001;51.968;5.918;2022-11-15T11:36:39;406.07;;;378.20;;
22768;SDS011;13001;51.968;5.918;2022-11-15T11:39:18;331.93;;;310.77;;
22768;SDS011;13001;51.968;5.918;2022-11-15T11:41:51;303.77;;;284.20;;
22768;SDS011;13001;51.968;5.918;2022-11-15T11:44:28;290.93;;;272.40;;
22768;SDS011;13001;51.968;5.918;2022-11-15T11:46:55;284.00;;;265.43;;
22768;SDS011;13001;51.968;5.918;2022-11-15T11:49:31;293.23;;;274.90;;
22768;SDS011;13001;51.968;5.918;2022-11-15T11:52:07;282.23;;;264.53;;
22768;SDS011;13001;51.968;5.918;2022-11-15T11:57:28;299.80;;;280.27;;
22768;SDS011;13001;51.968;5.918;2022-11-15T11:59:55;346.00;;;320.83;;
22768;SDS011;13001;51.968;5.918;2022-11-15T12:02:30;270.80;;;253.47;;
22768;SDS011;13001;51.968;5.918;2022-11-15T12:04:56;318.50;;;296.23;;
22768;SDS011;13001;51.968;5.918;2022-11-15T12:07:29;278.77;;;260.70;;
22768;SDS011;13001;51.968;5.918;2022-11-15T12:13:00;337.83;;;314.37;;
22768;SDS011;13001;51.968;5.918;2022-11-15T12:15:25;311.93;;;290.57;;
22768;SDS011;13001;51.968;5.918;2022-11-15T12:17:54;353.00;;;328.03;;
22768;SDS011;13001;51.968;5.918;2022-11-15T12:20:23;334.67;;;312.90;;
22768;SDS011;13001;51.968;5.918;2022-11-15T12:22:55;296.97;;;278.03;;
22768;SDS011;13001;51.968;5.918;2022-11-15T12:28:00;328.13;;;306.90;;
22768;SDS011;13001;51.968;5.918;2022-11-15T12:30:24;318.33;;;298.27;;
22768;SDS011;13001;51.968;5.918;2022-11-15T12:32:54;278.20;;;261.10;;
22768;SDS011;13001;51.968;5.918;2022-11-15T12:35:35;279.07;;;261.27;;
22768;SDS011;13001;51.968;5.918;2022-11-15T12:38:03;301.90;;;283.00;;
22768;SDS011;13001;51.968;5.918;2022-11-15T12:40:32;294.03;;;275.27;;
22768;SDS011;13001;51.968;5.918;2022-11-15T12:43:01;279.47;;;261.97;;
22768;SDS011;13001;51.968;5.918;2022-11-15T12:45:40;304.13;;;284.10;;
22768;SDS011;13001;51.968;5.918;2022-11-15T13:07:00;342.83;;;320.07;;
22768;SDS011;13001;51.968;5.918;2022-11-15T13:11:58;358.10;;;333.07;;
22768;SDS011;13001;51.968;5.918;2022-11-15T13:19:49;340.37;;;317.53;;
22768;SDS011;13001;51.968;5.918;2022-11-15T13:22:16;325.17;;;303.37;;
22768;SDS011;13001;51.968;5.918;2022-11-15T13:25:02;295.93;;;276.47;;
22768;SDS011;13001;51.968;5.918;2022-11-15T13:27:29;324.10;;;302.07;;
22768;SDS011;13001;51.968;5.918;2022-11-15T13:29:56;330.83;;;307.83;;
22768;SDS011;13001;51.968;5.918;2022-11-15T13:32:25;335.23;;;312.40;;
22768;SDS011;13001;51.968;5.918;2022-11-15T13:34:52;309.53;;;288.73;;
22768;SDS011;13001;51.968;5.918;2022-11-15T13:39:48;284.37;;;265.77;;
22768;SDS011;13001;51.968;5.918;2022-11-15T13:42:19;240.70;;;225.03;;
22768;SDS011;13001;51.968;5.918;2022-11-15T13:44:54;272.50;;;254.67;;
22768;SDS011;13001;51.968;5.918;2022-11-15T13:47:22;272.47;;;254.27;;
22768;SDS011;13001;51.968;5.918;2022-11-15T13:49:50;250.90;;;234.07;;
22768;SDS011;13001;51.968;5.918;2022-11-15T13:52:18;235.93;;;220.10;;
22768;SDS011;13001;51.968;5.918;2022-11-15T13:57:16;224.47;;;208.47;;
22768;SDS011;13001;51.968;5.918;2022-11-15T13:59:44;222.37;;;206.40;;
22768;SDS011;13001;51.968;5.918;2022-11-15T14:02:17;217.00;;;201.77;;
22768;SDS011;13001;51.968;5.918;2022-11-15T14:04:46;224.50;;;208.63;;
22768;SDS011;13001;51.968;5.918;2022-11-15T14:07:14;222.03;;;206.47;;
22768;SDS011;13001;51.968;5.918;2022-11-15T14:09:39;206.23;;;191.67;;
22768;SDS011;13001;51.968;5.918;2022-11-15T14:12:23;213.23;;;198.03;;
22768;SDS011;13001;51.968;5.918;2022-11-15T14:14:51;211.73;;;197.03;;
22768;SDS011;13001;51.968;5.918;2022-11-15T14:17:32;227.17;;;211.33;;
22768;SDS011;13001;51.968;5.918;2022-11-15T14:19:47;237.80;;;221.17;;
22768;SDS011;13001;51.968;5.918;2022-11-15T14:22:23;223.17;;;207.93;;
22768;SDS011;13001;51.968;5.918;2022-11-15T14:27:35;223.23;;;207.87;;
22768;SDS011;13001;51.968;5.918;2022-11-15T14:30:02;234.97;;;218.83;;
22768;SDS011;13001;51.968;5.918;2022-11-15T14:32:40;216.13;;;201.37;;
22768;SDS011;13001;51.968;5.918;2022-11-15T14:35:08;230.90;;;215.23;;
22768;SDS011;13001;51.968;5.918;2022-11-15T14:37:34;210.87;;;196.27;;
22768;SDS011;13001;51.968;5.918;2022-11-15T14:40:02;232.37;;;216.27;;
22768;SDS011;13001;51.968;5.918;2022-11-15T14:42:30;231.70;;;215.93;;
22768;SDS011;13001;51.968;5.918;2022-11-15T14:44:57;234.97;;;219.23;;
22768;SDS011;13001;51.968;5.918;2022-11-15T14:47:25;227.43;;;212.40;;
22768;SDS011;13001;51.968;5.918;2022-11-15T14:49:52;236.70;;;220.97;;
22768;SDS011;13001;51.968;5.918;2022-11-15T14:52:26;251.30;;;234.60;;
22768;SDS011;13001;51.968;5.918;2022-11-15T14:54:55;291.50;;;270.87;;
22768;SDS011;13001;51.968;5.918;2022-11-15T14:57:24;238.53;;;222.60;;
22768;SDS011;13001;51.968;5.918;2022-11-15T14:59:51;250.27;;;233.27;;
22768;SDS011;13001;51.968;5.918;2022-11-15T15:02:23;231.70;;;216.43;;
22768;SDS011;13001;51.968;5.918;2022-11-15T15:04:51;249.37;;;232.63;;
22768;SDS011;13001;51.968;5.918;2022-11-15T15:07:18;243.17;;;227.30;;
22768;SDS011;13001;51.968;5.918;2022-11-15T15:09:45;236.50;;;221.63;;
22768;SDS011;13001;51.968;5.918;2022-11-15T15:12:16;387.60;;;356.83;;
22768;SDS011;13001;51.968;5.918;2022-11-15T15:14:45;222.80;;;208.67;;
22768;SDS011;13001;51.968;5.918;2022-11-15T15:17:12;342.53;;;315.40;;
22768;SDS011;13001;51.968;5.918;2022-11-15T15:19:40;215.30;;;201.73;;
22768;SDS011;13001;51.968;5.918;2022-11-15T15:22:18;216.97;;;203.03;;
22768;SDS011;13001;51.968;5.918;2022-11-15T15:24:42;215.27;;;201.60;;
22768;SDS011;13001;51.968;5.918;2022-11-15T15:27:10;218.00;;;204.07;;
22768;SDS011;13001;51.968;5.918;2022-11-15T15:29:37;218.97;;;204.60;;
22768;SDS011;13001;51.968;5.918;2022-11-15T15:32:04;226.90;;;211.50;;
22768;SDS011;13001;51.968;5.918;2022-11-15T15:34:32;196.70;;;184.30;;